createdAt,value
2023-03-29T00:01:42.116Z,41.03
2023-03-29T00:04:46.145Z,40.81
2023-03-29T00:07:54.388Z,41.54
2023-03-29T00:10:59.361Z,41.24
2023-03-29T00:14:02.278Z,41.33
2023-03-29T00:17:04.878Z,40.92
2023-03-29T00:20:12.407Z,40.82
2023-03-29T00:23:15.140Z,40.24
2023-03-29T00:26:17.742Z,40.80
2023-03-29T00:29:20.316Z,40.53
2023-03-29T00:32:23.063Z,41.15
2023-03-29T00:35:25.762Z,41.61
2023-03-29T00:38:28.900Z,42.12
2023-03-29T00:41:32.696Z,42.99
2023-03-29T00:44:53.718Z,43.73
2023-03-29T00:48:04.807Z,43.95
2023-03-29T00:51:10.445Z,44.78
2023-03-29T00:54:18.794Z,45.47
2023-03-29T00:57:25.836Z,45.61
2023-03-29T01:00:52.466Z,45.86
2023-03-29T01:04:00.505Z,46.03
2023-03-29T01:07:03.114Z,46.39
2023-03-29T01:10:14.546Z,46.67
2023-03-29T01:13:27.293Z,46.44
2023-03-29T01:16:33.718Z,46.80
2023-03-29T01:19:44.173Z,47.20
2023-03-29T01:23:34.467Z,46.62
2023-03-29T01:26:47.725Z,47.18
2023-03-29T01:30:01.175Z,47.25
2023-03-29T01:33:10.766Z,47.23
2023-03-29T01:36:20.261Z,47.50
2023-03-29T01:39:24.581Z,47.02
2023-03-29T01:42:33.968Z,46.94
2023-03-29T01:45:38.905Z,47.31
2023-03-29T01:48:54.227Z,47.43
2023-03-29T01:52:17.587Z,47.52
2023-03-29T01:55:28.778Z,47.89
2023-03-29T01:58:39.795Z,47.46
2023-03-29T02:01:50.257Z,46.93
2023-03-29T02:04:56.199Z,47.04
2023-03-29T02:08:01.998Z,46.73
2023-03-29T02:11:07.891Z,47.25
2023-03-29T02:14:10.670Z,46.70
2023-03-29T02:17:22.903Z,46.67
2023-03-29T02:20:39.475Z,47.44
2023-03-29T02:23:47.653Z,48.01
2023-03-29T02:26:50.501Z,48.10
2023-03-29T02:29:53.468Z,48.62
2023-03-29T02:33:15.989Z,48.95
2023-03-29T02:36:24.051Z,48.80
2023-03-29T02:39:31.778Z,48.50
2023-03-29T02:42:35.293Z,48.51
2023-03-29T02:45:41.424Z,47.91
2023-03-29T02:48:47.029Z,48.11
2023-03-29T02:51:54.355Z,48.12
2023-03-29T02:54:57.677Z,48.32
2023-03-29T02:58:08.457Z,47.81
2023-03-29T03:01:12.870Z,47.64
2023-03-29T03:04:19.425Z,47.90
2023-03-29T03:07:25.226Z,47.53
2023-03-29T03:10:27.961Z,47.93
2023-03-29T03:13:30.995Z,48.00
2023-03-29T03:16:34.029Z,48.10
2023-03-29T03:19:36.895Z,48.14
2023-03-29T03:22:48.823Z,48.48
2023-03-29T03:25:53.509Z,48.75
2023-03-29T03:28:56.796Z,49.15
2023-03-29T03:32:29.007Z,49.19
2023-03-29T03:36:12.042Z,49.94
2023-03-29T03:39:18.306Z,50.21
2023-03-29T03:42:24.048Z,49.85
2023-03-29T03:45:27.145Z,50.15
2023-03-29T03:48:37.388Z,49.84
2023-03-29T03:51:45.894Z,49.87
2023-03-29T03:54:50.393Z,49.84
2023-03-29T03:58:17.904Z,50.06
2023-03-29T04:01:20.649Z,50.29
2023-03-29T04:04:35.004Z,49.84
2023-03-29T04:07:47.658Z,49.27
2023-03-29T04:11:10.717Z,49.39
2023-03-29T04:14:19.598Z,48.63
2023-03-29T04:17:37.115Z,49.29
2023-03-29T04:20:52.137Z,48.60
2023-03-29T04:23:57.564Z,48.66
2023-03-29T04:27:00.570Z,48.26
2023-03-29T04:30:04.084Z,48.41
2023-03-29T04:33:25.521Z,48.63
2023-03-29T04:36:35.176Z,47.44
2023-03-29T04:39:40.043Z,47.78
2023-03-29T04:42:44.896Z,47.65
2023-03-29T04:45:48.071Z,47.27
2023-03-29T04:49:06.874Z,47.00
2023-03-29T04:52:14.765Z,46.54
2023-03-29T04:55:17.690Z,45.98
2023-03-29T04:58:32.516Z,45.50
2023-03-29T05:01:36.474Z,44.74
2023-03-29T05:04:39.159Z,44.55
2023-03-29T05:07:48.492Z,43.53
2023-03-29T05:10:54.064Z,43.71
2023-03-29T05:14:00.894Z,42.64
2023-03-29T05:17:06.570Z,42.25
2023-03-29T05:20:10.388Z,42.44
2023-03-29T05:23:13.651Z,42.45
2023-03-29T05:26:35.707Z,42.25
2023-03-29T05:29:39.649Z,41.84
2023-03-29T05:33:03.281Z,41.42
2023-03-29T05:36:13.635Z,40.77
2023-03-29T05:39:21.234Z,41.65
2023-03-29T05:42:24.835Z,40.94
2023-03-29T05:45:33.387Z,40.10
2023-03-29T05:48:36.461Z,40.18
2023-03-29T05:51:39.304Z,39.41
2023-03-29T05:54:42.314Z,39.49
2023-03-29T05:57:46.044Z,39.76
2023-03-29T06:00:50.090Z,39.38
2023-03-29T06:04:16.071Z,39.47
2023-03-29T06:07:32.252Z,39.49
2023-03-29T06:11:05.068Z,39.33
2023-03-29T06:14:29.024Z,39.20
2023-03-29T06:17:46.045Z,39.73
2023-03-29T06:20:53.807Z,39.75
2023-03-29T06:23:56.496Z,39.17
2023-03-29T06:27:01.280Z,37.80
2023-03-29T06:30:08.144Z,37.92
2023-03-29T06:33:13.228Z,37.19
2023-03-29T06:36:21.848Z,35.82
2023-03-29T06:39:26.550Z,36.13
2023-03-29T06:42:58.267Z,35.25
2023-03-29T06:46:14.544Z,34.79
2023-03-29T06:49:40.181Z,34.67
2023-03-29T06:53:05.763Z,34.65
2023-03-29T06:56:11.514Z,34.77
2023-03-29T06:59:17.035Z,34.75
2023-03-29T07:02:31.426Z,33.88
2023-03-29T07:05:42.549Z,33.13
2023-03-29T07:08:52.514Z,31.59
2023-03-29T07:12:18.856Z,30.48
2023-03-29T07:15:22.286Z,30.00
2023-03-29T07:18:45.630Z,30.07
2023-03-29T07:21:57.135Z,30.14
2023-03-29T07:25:12.400Z,29.90
2023-03-29T07:28:15.343Z,29.16
2023-03-29T07:31:18.532Z,29.02
2023-03-29T07:34:27.288Z,29.03
2023-03-29T07:37:30.658Z,28.68
2023-03-29T07:40:34.292Z,28.24
2023-03-29T07:43:55.942Z,27.77
2023-03-29T07:47:04.572Z,28.18
2023-03-29T07:50:10.002Z,27.58
2023-03-29T07:53:13.189Z,27.07
2023-03-29T07:56:16.438Z,26.92
2023-03-29T07:59:27.395Z,26.76
2023-03-29T08:02:40.247Z,26.02
2023-03-29T08:05:43.344Z,26.26
2023-03-29T08:08:48.120Z,25.54
2023-03-29T08:11:53.614Z,25.26
2023-03-29T08:15:01.692Z,23.92
2023-03-29T08:18:08.492Z,23.94
2023-03-29T08:21:11.349Z,27.22
2023-03-29T08:24:14.144Z,27.47
2023-03-29T08:27:23.550Z,26.49
2023-03-29T08:30:26.282Z,26.34
2023-03-29T08:33:29.585Z,26.36
2023-03-29T08:36:52.668Z,25.90
2023-03-29T08:40:22.005Z,25.11
2023-03-29T08:44:24.355Z,24.70
2023-03-29T08:47:39.215Z,24.08
2023-03-29T08:50:52.900Z,23.19
2023-03-29T08:54:11.499Z,21.72
2023-03-29T08:57:38.739Z,20.22
2023-03-29T09:00:59.287Z,17.22
2023-03-29T09:04:21.833Z,14.45
2023-03-29T09:07:39.271Z,12.04
2023-03-29T09:10:47.020Z,10.69
2023-03-29T09:14:27.801Z,10.22
2023-03-29T09:18:01.118Z,8.78
2023-03-29T09:21:50.747Z,8.56
2023-03-29T09:25:14.827Z,8.17
2023-03-29T09:28:27.718Z,9.19
2023-03-29T09:31:38.060Z,11.40
2023-03-29T09:34:45.867Z,12.30
2023-03-29T09:37:54.850Z,12.60
2023-03-29T09:41:06.804Z,13.13
2023-03-29T09:47:36.292Z,12.78
2023-03-29T09:50:53.713Z,13.25
2023-03-29T09:53:57.960Z,13.19
2023-03-29T09:57:31.950Z,12.69
2023-03-29T10:00:34.940Z,10.81
2023-03-29T10:03:39.642Z,9.07
2023-03-29T10:06:52.341Z,9.28
2023-03-29T10:09:56.154Z,9.23
2023-03-29T10:13:07.356Z,8.72
2023-03-29T10:16:20.064Z,8.74
2023-03-29T10:19:34.532Z,7.22
2023-03-29T10:22:40.442Z,7.44
2023-03-29T10:25:43.305Z,6.87
2023-03-29T10:28:47.350Z,6.93
2023-03-29T10:31:50.894Z,6.16
2023-03-29T10:34:55.342Z,6.27
2023-03-29T10:37:59.505Z,6.71
2023-03-29T10:41:10.358Z,6.07
2023-03-29T10:44:33.395Z,6.18
2023-03-29T10:47:36.439Z,7.16
2023-03-29T10:50:39.904Z,7.39
2023-03-29T10:53:42.563Z,5.76
2023-03-29T10:56:57.808Z,5.86
2023-03-29T11:00:10.021Z,7.16
2023-03-29T11:03:45.043Z,6.13
2023-03-29T11:06:57.014Z,5.91
2023-03-29T11:10:28.476Z,5.63
2023-03-29T11:13:51.574Z,5.51
2023-03-29T11:17:01.498Z,5.83
2023-03-29T11:20:12.875Z,5.09
2023-03-29T11:23:37.863Z,4.82
2023-03-29T11:27:22.818Z,5.56
2023-03-29T11:30:35.824Z,5.24
2023-03-29T11:33:52.112Z,5.08
2023-03-29T11:37:16.229Z,5.83
2023-03-29T11:40:47.325Z,5.48
2023-03-29T11:43:55.158Z,5.87
2023-03-29T11:47:12.974Z,7.13
2023-03-29T11:50:46.548Z,7.60
2023-03-29T11:54:22.892Z,5.63
2023-03-29T11:57:41.122Z,5.74
2023-03-29T12:00:56.402Z,5.85
2023-03-29T12:04:08.098Z,5.82
2023-03-29T12:07:45.041Z,6.00
2023-03-29T12:11:01.445Z,6.76
2023-03-29T12:14:28.162Z,5.62
2023-03-29T12:17:37.495Z,6.62
2023-03-29T12:20:42.178Z,6.60
2023-03-29T12:23:48.704Z,7.50
2023-03-29T12:27:07.458Z,7.77
2023-03-29T12:30:23.756Z,7.80
2023-03-29T12:33:35.167Z,8.71
2023-03-29T12:37:08.343Z,9.79
2023-03-29T12:40:41.920Z,10.83
2023-03-29T12:44:05.219Z,11.49
2023-03-29T12:47:44.896Z,11.63
2023-03-29T12:51:01.153Z,12.03
2023-03-29T12:54:19.100Z,10.81
2023-03-29T12:57:41.914Z,11.67
2023-03-29T13:00:48.102Z,10.54
2023-03-29T13:04:13.833Z,13.05
2023-03-29T13:07:23.051Z,12.89
2023-03-29T13:10:34.360Z,13.24
2023-03-29T13:13:39.173Z,14.28
2023-03-29T13:16:43.512Z,14.50
2023-03-29T13:20:23.026Z,11.81
2023-03-29T13:23:54.801Z,11.42
2023-03-29T13:27:19.837Z,12.05
2023-03-29T13:30:45.910Z,14.70
2023-03-29T13:34:07.203Z,15.36
2023-03-29T13:37:28.344Z,15.79
2023-03-29T13:40:33.258Z,16.86
2023-03-29T13:43:51.560Z,15.61
2023-03-29T13:47:12.812Z,12.22
2023-03-29T13:50:29.584Z,12.00
2023-03-29T13:53:41.004Z,13.86
2023-03-29T13:57:02.721Z,12.68
2023-03-29T14:00:24.826Z,12.11
2023-03-29T14:03:31.622Z,10.88
2023-03-29T14:06:38.137Z,12.60
2023-03-29T14:09:51.188Z,16.28
2023-03-29T14:12:56.753Z,16.78
2023-03-29T14:16:07.450Z,16.52
2023-03-29T14:19:29.343Z,18.03
2023-03-29T14:22:34.096Z,16.42
2023-03-29T14:25:39.035Z,17.39
2023-03-29T14:28:49.794Z,17.04
2023-03-29T14:31:52.764Z,18.90
2023-03-29T14:34:56.718Z,21.44
2023-03-29T14:38:00.586Z,22.62
2023-03-29T14:41:03.677Z,23.42
2023-03-29T14:44:07.769Z,24.60
2023-03-29T14:47:20.782Z,25.23
2023-03-29T14:50:31.160Z,26.47
2023-03-29T14:53:37.136Z,26.24
2023-03-29T14:56:41.461Z,26.60
2023-03-29T14:59:55.826Z,27.28
2023-03-29T15:03:02.899Z,27.44
2023-03-29T15:06:06.390Z,27.64
2023-03-29T15:09:17.429Z,27.57
2023-03-29T15:12:20.637Z,27.57
2023-03-29T15:15:25.884Z,27.77
2023-03-29T15:18:32.633Z,28.02
2023-03-29T15:21:36.172Z,27.90
2023-03-29T15:24:45.022Z,28.00
2023-03-29T15:27:54.631Z,28.23
2023-03-29T15:31:12.039Z,28.12
2023-03-29T15:34:25.991Z,28.61
2023-03-29T15:37:29.789Z,28.97
2023-03-29T15:40:33.200Z,28.55
2023-03-29T15:43:38.538Z,28.59
2023-03-29T15:46:41.245Z,28.71
2023-03-29T15:49:47.331Z,28.65
2023-03-29T15:52:50.424Z,29.01
2023-03-29T15:55:55.379Z,29.38
2023-03-29T15:58:58.287Z,29.53
2023-03-29T16:02:01.133Z,29.66
2023-03-29T16:05:03.915Z,30.10
2023-03-29T16:08:06.815Z,30.04
2023-03-29T16:11:11.685Z,30.72
2023-03-29T16:14:24.228Z,30.80
2023-03-29T16:17:27.914Z,31.71
2023-03-29T16:20:30.562Z,31.14
2023-03-29T16:23:33.191Z,31.30
2023-03-29T16:26:35.822Z,31.26
2023-03-29T16:29:38.591Z,31.16
2023-03-29T16:32:41.760Z,31.23
2023-03-29T16:35:44.396Z,31.45
2023-03-29T16:38:47.419Z,32.07
2023-03-29T16:41:50.490Z,32.60
2023-03-29T16:44:54.760Z,33.10
2023-03-29T16:47:57.574Z,33.20
2023-03-29T16:51:00.873Z,33.03
2023-03-29T16:54:03.823Z,33.57
2023-03-29T16:57:07.848Z,33.74
2023-03-29T17:00:15.755Z,33.13
2023-03-29T17:03:18.624Z,33.86
2023-03-29T17:06:22.021Z,33.81
2023-03-29T17:09:25.784Z,33.81
2023-03-29T17:12:29.439Z,34.38
2023-03-29T17:15:32.330Z,34.50
2023-03-29T17:18:35.307Z,34.67
2023-03-29T17:21:38.133Z,35.51
2023-03-29T17:24:41.730Z,36.49
2023-03-29T17:27:46.120Z,37.34
2023-03-29T17:30:49.600Z,37.83
2023-03-29T17:33:53.257Z,38.41
2023-03-29T17:36:57.540Z,38.97
2023-03-29T17:40:01.232Z,39.28
2023-03-29T17:43:06.657Z,40.05
2023-03-29T17:46:09.555Z,40.52
2023-03-29T17:49:15.107Z,40.75
2023-03-29T17:52:18.302Z,41.09
2023-03-29T17:55:21.464Z,41.21
2023-03-29T17:58:25.848Z,41.21
2023-03-29T18:01:29.459Z,41.53
2023-03-29T18:04:34.549Z,41.67
2023-03-29T18:07:38.577Z,41.76
2023-03-29T18:10:41.609Z,41.92
2023-03-29T18:13:45.750Z,41.91
2023-03-29T18:16:49.591Z,42.13
2023-03-29T18:19:52.566Z,42.11
2023-03-29T18:22:55.955Z,42.41
2023-03-29T18:26:02.081Z,42.30
2023-03-29T18:29:07.349Z,42.65
2023-03-29T18:32:12.442Z,42.97
2023-03-29T18:35:16.604Z,42.62
2023-03-29T18:38:23.174Z,42.96
2023-03-29T18:41:26.917Z,43.51
2023-03-29T18:44:30.138Z,43.09
2023-03-29T18:47:33.639Z,43.88
2023-03-29T18:50:39.462Z,43.69
2023-03-29T18:53:45.954Z,43.25
2023-03-29T18:56:49.173Z,43.60
2023-03-29T18:59:54.821Z,43.82
2023-03-29T19:03:00.035Z,43.23
2023-03-29T19:06:04.072Z,43.21
2023-03-29T19:09:09.074Z,44.26
2023-03-29T19:12:12.384Z,43.95
2023-03-29T19:15:15.463Z,44.32
2023-03-29T19:18:18.887Z,44.27
2023-03-29T19:21:22.574Z,44.57
2023-03-29T19:24:27.258Z,44.61
2023-03-29T19:27:34.421Z,44.88
2023-03-29T19:30:37.879Z,44.63
2023-03-29T19:33:41.767Z,45.48
2023-03-29T19:36:44.800Z,45.42
2023-03-29T19:39:48.694Z,44.98
2023-03-29T19:42:51.959Z,45.14
2023-03-29T19:45:55.460Z,46.02
2023-03-29T19:49:00.615Z,46.42
2023-03-29T19:52:06.864Z,46.06
2023-03-29T19:55:10.945Z,45.60
2023-03-29T19:58:14.367Z,45.42
2023-03-29T20:01:21.354Z,46.01
2023-03-29T20:04:24.877Z,46.26
2023-03-29T20:07:29.022Z,45.92
2023-03-29T20:10:32.105Z,46.16
2023-03-29T20:13:38.703Z,45.78
2023-03-29T20:16:43.154Z,46.10
2023-03-29T20:19:46.228Z,45.99
2023-03-29T20:22:49.082Z,46.38
2023-03-29T20:25:52.924Z,45.89
2023-03-29T20:28:56.089Z,46.29
2023-03-29T20:31:59.149Z,47.02
2023-03-29T20:35:01.828Z,46.55
2023-03-29T20:38:04.450Z,46.13
2023-03-29T20:41:09.442Z,46.39
2023-03-29T20:44:12.664Z,46.63
2023-03-29T20:47:16.851Z,46.78
2023-03-29T20:50:20.217Z,46.49
2023-03-29T20:53:23.149Z,46.78
2023-03-29T20:56:26.322Z,47.07
2023-03-29T20:59:30.030Z,46.84
2023-03-29T21:02:32.609Z,46.99
2023-03-29T21:05:35.712Z,47.01
2023-03-29T21:08:38.804Z,47.13
2023-03-29T21:11:41.518Z,47.45
2023-03-29T21:14:44.706Z,47.39
2023-03-29T21:17:47.871Z,47.09
2023-03-29T21:20:50.896Z,47.32
2023-03-29T21:23:54.816Z,47.75
2023-03-29T21:26:57.584Z,47.65
2023-03-29T21:30:00.219Z,47.15
2023-03-29T21:33:02.929Z,46.96
2023-03-29T21:36:06.256Z,47.45
2023-03-29T21:39:08.846Z,47.56
2023-03-29T21:42:11.715Z,48.08
2023-03-29T21:45:14.400Z,47.64
2023-03-29T21:48:18.222Z,47.55
2023-03-29T21:51:20.886Z,47.63
2023-03-29T21:54:23.534Z,47.35
2023-03-29T21:57:26.214Z,47.01
2023-03-29T22:00:29.057Z,47.40
2023-03-29T22:03:32.016Z,47.19
2023-03-29T22:06:34.613Z,47.41
2023-03-29T22:09:42.492Z,47.95
2023-03-29T22:12:45.208Z,47.69
2023-03-29T22:15:49.868Z,48.49
2023-03-29T22:18:54.317Z,48.54
2023-03-29T22:22:01.463Z,48.17
2023-03-29T22:25:04.541Z,48.44
2023-03-29T22:28:07.060Z,48.56
2023-03-29T22:31:18.493Z,48.33
2023-03-29T22:34:21.270Z,48.07
2023-03-29T22:37:24.053Z,48.24
2023-03-29T22:40:26.666Z,48.83
2023-03-29T22:43:29.418Z,49.30
2023-03-29T22:46:32.158Z,48.94
2023-03-29T22:49:34.966Z,49.42
2023-03-29T22:52:37.519Z,49.68
2023-03-29T22:55:40.102Z,50.09
2023-03-29T22:58:43.379Z,50.03
2023-03-29T23:01:46.121Z,50.26
2023-03-29T23:04:51.545Z,50.97
2023-03-29T23:07:56.005Z,51.54
2023-03-29T23:10:58.808Z,51.86
2023-03-29T23:14:04.176Z,51.59
2023-03-29T23:17:09.193Z,51.94
2023-03-29T23:20:13.015Z,51.92
2023-03-29T23:23:17.590Z,52.00
2023-03-29T23:26:20.254Z,51.66
2023-03-29T23:29:22.878Z,52.44
2023-03-29T23:32:25.400Z,51.93
2023-03-29T23:35:28.025Z,52.22
2023-03-29T23:38:33.370Z,52.13
2023-03-29T23:41:36.243Z,52.51
2023-03-29T23:44:39.592Z,52.95
2023-03-29T23:47:44.123Z,53.37
2023-03-29T23:50:46.733Z,52.53
2023-03-29T23:53:49.713Z,52.72
2023-03-29T23:56:52.455Z,52.50
2023-03-29T23:59:56.269Z,51.93
